Time;durP1;ratioP1;P1;durP2;ratioP2;P2;SDS_P1;SDS_P2;PMS_P1;PMS_P2;Temp;Humidity;BMP_temperature;BMP_pressure;BME280_temperature;BME280_humidity;BME280_pressure;Samples;Min_cycle;Max_cycle;Signal;HPM_P1;HPM_P2
2021/12/04 00:00:44;;;;;;;;;10.50;8.50;;;;;9.48;79.80;99121.59;5096414;27;45638;-61
2021/12/04 00:03:10;;;;;;;;;8.25;8.25;;;;;9.51;79.82;99108.19;5078809;27;45591;-61
2021/12/04 00:05:35;;;;;;;;;67.50;50.00;;;;;9.54;80.24;99105.19;5096656;27;55208;-61
2021/12/04 00:08:00;;;;;;;;;27.00;26.00;;;;;9.58;79.64;99093.41;5097147;27;45713;-61
2021/12/04 00:10:28;;;;;;;;;18.00;16.50;;;;;9.64;80.04;99078.81;5096928;27;45257;-61
2021/12/04 00:12:54;;;;;;;;;29.75;25.50;;;;;9.67;79.74;99075.03;5096798;27;46228;-61
2021/12/04 00:15:19;;;;;;;;;18.00;16.75;;;;;9.72;79.69;99070.09;5078611;27;45470;-60
2021/12/04 00:17:45;;;;;;;;;19.50;18.00;;;;;9.74;79.78;99066.34;5096470;27;57763;-61
2021/12/04 00:20:10;;;;;;;;;18.00;12.25;;;;;9.77;80.01;99050.28;5096339;27;60869;-61
2021/12/04 00:22:36;;;;;;;;;16.75;13.00;;;;;9.81;79.80;99045.50;5078419;27;45490;-61
2021/12/04 00:25:03;;;;;;;;;9.75;8.75;;;;;9.86;79.77;99045.00;5096557;27;45487;-61
2021/12/04 00:27:29;;;;;;;;;5.75;5.75;;;;;9.91;80.26;99048.75;5077896;27;45374;-61
2021/12/04 00:29:56;;;;;;;;;6.00;5.50;;;;;9.95;80.19;99046.59;5095562;27;45348;-61
2021/12/04 00:32:30;;;;;;;;;6.00;6.00;;;;;10.00;80.00;99038.25;5096617;27;45455;-61
2021/12/04 00:35:22;;;;;;;;;6.00;5.00;;;;;10.04;79.91;99042.16;5079672;27;45872;-61
2021/12/04 00:51:10;;;;;;;;;3.50;3.50;;;;;10.29;79.82;99028.94;5096759;27;45477;-61
2021/12/04 00:53:36;;;;;;;;;5.00;3.75;;;;;10.32;79.71;99018.09;5078209;27;45420;-61
2021/12/04 00:56:01;;;;;;;;;3.50;3.25;;;;;10.34;79.91;99014.28;5095449;27;45394;-61
2021/12/04 00:58:27;;;;;;;;;2.00;2.00;;;;;10.39;80.09;99013.81;5096414;27;47477;-61
2021/12/04 01:00:52;;;;;;;;;3.00;1.75;;;;;10.43;80.18;99014.28;5095474;27;69576;-61
2021/12/04 01:03:17;;;;;;;;;1.75;1.00;;;;;10.48;80.19;99014.59;5077511;27;64807;-61
2021/12/04 01:05:43;;;;;;;;;1.75;1.75;;;;;10.51;80.13;99017.69;5095567;27;66450;-61
2021/12/04 01:08:08;;;;;;;;;0.00;0.00;;;;;10.56;80.02;99017.16;5098565;27;45347;-61
2021/12/04 01:10:35;;;;;;;;;1.00;1.00;;;;;10.62;80.16;99013.00;5099916;27;45518;-61
2021/12/04 01:13:03;;;;;;;;;1.50;0.00;;;;;10.66;80.61;98990.66;5098917;27;46096;-61
2021/12/04 01:15:28;;;;;;;;;0.75;0.75;;;;;10.71;80.39;99009.34;5081556;27;45930;-60
2021/12/04 01:17:54;;;;;;;;;0.00;0.00;;;;;10.76;80.00;99009.66;5099188;27;54532;-61
2021/12/04 01:20:19;;;;;;;;;0.25;0.25;;;;;10.80;80.24;99012.75;5099544;27;46512;-61
2021/12/04 01:22:44;;;;;;;;;1.00;0.50;;;;;10.82;80.13;99008.94;5098871;27;66760;-61
2021/12/04 01:25:10;;;;;;;;;0.00;0.00;;;;;10.87;80.10;98997.91;5098782;27;64253;-61
2021/12/04 01:27:37;;;;;;;;;1.00;0.00;;;;;10.91;79.88;99012.31;5099675;27;45377;-61
2021/12/04 01:30:04;;;;;;;;;0.00;0.00;;;;;10.93;79.79;99010.34;5099577;27;45532;-61
2021/12/04 01:32:29;;;;;;;;;0.00;0.00;;;;;10.97;79.75;99018.69;5099289;27;46525;-61
2021/12/04 01:34:55;;;;;;;;;3.00;0.00;;;;;11.00;80.14;99018.34;5099306;27;47639;-62
2021/12/04 01:37:20;;;;;;;;;0.00;0.00;;;;;11.02;79.84;99007.66;5099661;27;45244;-61
2021/12/04 01:39:45;;;;;;;;;0.00;0.00;;;;;11.06;79.69;99012.41;5080622;27;58344;-61
2021/12/04 01:42:11;;;;;;;;;0.00;0.00;;;;;11.10;79.99;99015.47;5098991;27;45476;-61
2021/12/04 01:44:36;;;;;;;;;0.00;0.00;;;;;11.13;80.09;99013.28;5099312;27;45350;-61
2021/12/04 01:47:13;;;;;;;;;0.00;0.00;;;;;11.17;80.09;99023.47;5097502;27;60692;-61
2021/12/04 01:49:38;;;;;;;;;0.00;0.00;;;;;11.21;80.20;99014.22;5099284;27;45464;-61
2021/12/04 01:52:04;;;;;;;;;0.00;0.00;;;;;11.24;80.21;99019.13;5080754;27;45692;-61
2021/12/04 01:54:30;;;;;;;;;0.00;0.00;;;;;11.27;79.57;99016.16;5099089;27;45339;-61
2021/12/04 01:56:55;;;;;;;;;0.00;0.00;;;;;11.30;80.00;99009.72;5081065;27;45370;-61
2021/12/04 01:59:21;;;;;;;;;0.00;0.00;;;;;11.31;80.09;99014.78;5080131;27;67743;-61
2021/12/04 02:01:46;;;;;;;;;0.00;0.00;;;;;11.34;79.40;99021.53;5080196;27;57159;-61
2021/12/04 02:04:11;;;;;;;;;0.00;0.00;;;;;11.35;79.41;99015.28;5079948;27;65136;-61
2021/12/04 02:06:38;;;;;;;;;0.00;0.00;;;;;11.36;79.50;99020.34;5079988;27;65011;-61
2021/12/04 02:09:03;;;;;;;;;1.00;0.00;;;;;11.38;79.98;99013.09;5080835;27;45438;-61
2021/12/04 02:11:29;;;;;;;;;0.00;0.00;;;;;11.41;79.91;99022.41;5098542;27;48063;-61
2021/12/04 02:13:54;;;;;;;;;1.75;0.00;;;;;11.43;79.88;99025.69;5097996;27;66935;-61
2021/12/04 02:16:20;;;;;;;;;0.00;0.00;;;;;11.45;79.57;99013.19;5080169;27;53577;-61
2021/12/04 02:18:46;;;;;;;;;0.00;0.00;;;;;11.50;79.38;99020.56;5097830;27;45345;-61
2021/12/04 02:21:11;;;;;;;;;0.00;0.00;;;;;11.52;79.42;99015.94;5098663;27;45362;-61
2021/12/04 02:23:37;;;;;;;;;0.00;0.00;;;;;11.53;79.69;99020.19;5062440;27;64042;-61
2021/12/04 02:26:02;;;;;;;;;0.00;0.00;;;;;11.54;79.46;99024.47;5098833;27;45217;-61
2021/12/04 02:28:27;;;;;;;;;0.00;0.00;;;;;11.56;79.17;99022.47;5098104;27;62786;-61
2021/12/04 02:30:53;;;;;;;;;0.75;0.00;;;;;11.56;79.48;99015.38;5097945;27;61587;-61
2021/12/04 02:33:20;;;;;;;;;0.00;0.00;;;;;11.59;79.38;99022.09;5097851;27;66648;-61
2021/12/04 02:35:50;;;;;;;;;0.00;0.00;;;;;11.60;79.37;99018.47;5098681;27;45307;-61
2021/12/04 02:38:16;;;;;;;;;0.00;0.00;;;;;11.61;79.30;99021.91;5098560;27;45289;-61
2021/12/04 02:40:43;;;;;;;;;0.00;0.00;;;;;11.61;78.98;99022.75;5096736;27;45441;-61
2021/12/04 02:43:09;;;;;;;;;0.00;0.00;;;;;11.62;79.57;99024.38;5080089;27;45796;-61
2021/12/04 02:45:34;;;;;;;;;1.00;0.00;;;;;11.64;78.83;99026.81;5097667;27;45404;-61
2021/12/04 02:48:00;;;;;;;;;0.00;0.00;;;;;11.65;79.31;99028.44;5097698;27;61654;-61
2021/12/04 02:50:25;;;;;;;;;0.00;0.00;;;;;11.66;79.24;99020.34;5097955;27;49378;-60
2021/12/04 02:52:51;;;;;;;;;0.00;0.00;;;;;11.66;78.82;99023.00;5097528;27;61195;-61
2021/12/04 02:55:16;;;;;;;;;0.00;0.00;;;;;11.66;79.01;99015.09;5097481;27;62379;-61
2021/12/04 02:57:44;;;;;;;;;0.00;0.00;;;;;11.69;79.02;99029.72;5098277;27;45331;-61
2021/12/04 03:00:21;;;;;;;;;0.00;0.00;;;;;11.69;79.30;99019.19;5097945;27;46232;-61
2021/12/04 03:02:46;;;;;;;;;0.00;0.00;;;;;11.70;78.76;99026.09;5081293;27;45819;-61
2021/12/04 03:05:12;;;;;;;;;0.00;0.00;;;;;11.72;nan;99018.84;5098249;27;45419;-61
2021/12/04 03:07:38;;;;;;;;;0.00;0.00;;;;;11.71;78.91;99020.63;5098093;27;45414;-61
2021/12/04 03:10:06;;;;;;;;;0.00;0.00;;;;;11.73;79.10;99021.28;5097794;27;46759;-61
2021/12/04 03:12:31;;;;;;;;;0.00;0.00;;;;;11.73;78.47;99037.06;5079969;27;45344;-61
2021/12/04 03:14:56;;;;;;;;;0.00;0.00;;;;;11.75;78.99;99029.00;5097296;27;56543;-61
2021/12/04 03:17:23;;;;;;;;;0.50;0.00;;;;;11.77;78.99;99026.19;5079704;27;45406;-61
2021/12/04 03:19:52;;;;;;;;;0.00;0.00;;;;;11.78;78.58;99022.56;5096704;27;46617;-61
2021/12/04 03:22:19;;;;;;;;;0.75;0.00;;;;;11.78;78.86;99012.03;5097743;27;45287;-62
2021/12/04 03:24:45;;;;;;;;;0.00;0.00;;;;;11.80;78.39;99015.28;5097918;27;45395;-61
2021/12/04 03:27:12;;;;;;;;;0.00;0.00;;;;;11.81;79.00;99023.03;5097883;27;45331;-61
2021/12/04 03:29:42;;;;;;;;;0.00;0.00;;;;;11.83;78.56;99022.81;5097482;27;46348;-61
2021/12/04 03:40:36;;;;;;;;;2.00;1.00;;;;;11.86;78.09;99019.84;5097562;27;45733;-61
2021/12/04 03:43:03;;;;;;;;;0.00;0.00;;;;;11.87;78.55;99016.19;5097575;27;45798;-61
2021/12/04 03:45:28;;;;;;;;;0.00;0.00;;;;;11.86;78.47;99004.03;5097587;27;45406;-61
2021/12/04 03:48:03;;;;;;;;;0.00;0.00;;;;;11.90;78.08;99017.66;5097270;27;49419;-61
2021/12/04 03:50:28;;;;;;;;;0.00;0.00;;;;;11.91;78.37;99008.78;5097339;27;45477;-61
2021/12/04 03:52:53;;;;;;;;;0.00;0.00;;;;;11.93;78.49;98999.69;5096683;27;62827;-61
2021/12/04 03:55:19;;;;;;;;;0.00;0.00;;;;;11.92;77.73;99008.59;5096631;27;59158;-61
2021/12/04 03:57:44;;;;;;;;;0.00;0.00;;;;;11.93;77.74;99015.47;5096400;27;68256;-61
2021/12/04 04:00:14;;;;;;;;;0.00;0.00;;;;;11.93;77.96;99010.22;5097180;27;45543;-61
2021/12/04 04:02:39;;;;;;;;;0.00;0.00;;;;;11.94;77.51;99017.09;5097228;27;45390;-61
2021/12/04 04:05:05;;;;;;;;;0.00;0.00;;;;;11.93;78.06;99010.22;5078196;27;64228;-61
2021/12/04 04:07:30;;;;;;;;;0.00;0.00;;;;;11.94;77.91;99017.09;5097132;27;45568;-61
2021/12/04 04:09:56;;;;;;;;;0.00;0.00;;;;;11.95;77.66;99017.91;5096354;27;60657;-62
2021/12/04 04:12:21;;;;;;;;;0.00;0.00;;;;;11.96;77.68;99020.38;5096753;27;54885;-61
2021/12/04 04:14:47;;;;;;;;;0.00;0.00;;;;;11.95;77.87;99008.22;5096234;27;62934;-61
2021/12/04 04:17:12;;;;;;;;;0.50;0.00;;;;;11.96;77.84;99012.47;5096250;27;59770;-61
2021/12/04 04:19:37;;;;;;;;;2.00;0.00;;;;;11.95;77.38;99004.75;5096831;27;46035;-61
2021/12/04 04:22:03;;;;;;;;;0.00;0.00;;;;;11.95;77.52;99010.84;5096122;27;64651;-61
2021/12/04 04:24:29;;;;;;;;;0.00;0.00;;;;;11.97;77.69;99013.28;5097050;27;45306;-61
2021/12/04 04:26:54;;;;;;;;;1.00;0.00;;;;;11.97;77.22;99008.03;5097015;27;45180;-61
2021/12/04 04:29:20;;;;;;;;;0.00;0.00;;;;;11.98;77.25;99014.91;5078244;27;46067;-61
2021/12/04 04:31:46;;;;;;;;;0.00;0.00;;;;;11.97;77.40;99019.38;5095888;27;64901;-61
2021/12/04 04:34:13;;;;;;;;;0.00;0.00;;;;;11.98;77.47;99018.38;5097059;27;45219;-61
2021/12/04 04:39:37;;;;;;;;;0.00;0.00;;;;;11.99;76.88;99008.66;5096726;27;46173;-61
2021/12/04 04:58:43;;;;;;;;;0.00;0.00;;;;;11.98;76.64;99012.28;5100134;27;45430;-60
2021/12/04 05:14:34;;;;;;;;;1.00;0.00;;;;;11.96;76.38;98994.06;5099732;27;45420;-61
2021/12/04 05:17:06;;;;;;;;;0.00;0.00;;;;;11.96;75.90;99001.13;5099973;27;45275;-61
2021/12/04 05:19:42;;;;;;;;;0.50;0.00;;;;;11.96;76.47;99001.97;5099837;27;45318;-61
2021/12/04 05:22:07;;;;;;;;;0.00;0.00;;;;;11.96;76.38;98999.31;5099628;27;47287;-61
2021/12/04 05:24:33;;;;;;;;;1.00;1.00;;;;;11.96;75.98;99007.22;5099369;27;45370;-61
2021/12/04 05:26:58;;;;;;;;;0.00;0.00;;;;;11.95;76.29;99002.94;5099901;27;45405;-61
2021/12/04 05:29:24;;;;;;;;;0.75;0.00;;;;;11.95;75.92;98994.22;5098405;27;45509;-61
2021/12/04 05:31:49;;;;;;;;;0.00;0.00;;;;;11.94;76.00;98982.06;5098519;27;71461;-61
2021/12/04 05:34:14;;;;;;;;;2.75;0.00;;;;;11.95;76.56;98995.06;5098891;27;62634;-61
2021/12/04 05:36:40;;;;;;;;;0.25;0.00;;;;;11.94;76.50;99000.50;5098737;27;62179;-61
2021/12/04 05:39:05;;;;;;;;;0.00;0.00;;;;;11.94;76.60;99003.94;5098800;27;62547;-60
2021/12/04 05:41:31;;;;;;;;;0.00;0.00;;;;;11.93;76.48;98993.59;5097784;27;50401;-61
2021/12/04 05:43:58;;;;;;;;;3.75;2.25;;;;;11.93;76.18;98997.06;5099244;27;45550;-62
2021/12/04 05:46:27;;;;;;;;;1.00;0.00;;;;;11.93;76.50;98994.41;5081484;27;45418;-60
2021/12/04 05:51:30;;;;;;;;;1.00;1.00;;;;;11.91;76.31;98993.78;5099110;27;48097;-61
2021/12/04 05:56:21;;;;;;;;;2.25;2.25;;;;;11.91;76.10;98995.63;5081025;27;45337;-61
2021/12/04 05:58:47;;;;;;;;;0.75;0.00;;;;;11.91;75.78;99001.69;5098720;27;53644;-61
2021/12/04 06:01:13;;;;;;;;;0.00;0.00;;;;;11.90;76.09;99002.69;5080009;27;45464;-61
2021/12/04 06:03:38;;;;;;;;;2.25;2.25;;;;;11.91;75.78;99006.94;5098900;27;45193;-61
2021/12/04 06:06:04;;;;;;;;;0.00;0.00;;;;;11.91;75.66;99006.94;5080673;27;45271;-61
2021/12/04 06:08:29;;;;;;;;;0.00;0.00;;;;;11.90;75.50;99007.94;5080689;27;45411;-61
2021/12/04 06:10:55;;;;;;;;;0.00;0.00;;;;;11.90;75.63;99001.88;5080282;27;45506;-61
2021/12/04 06:13:20;;;;;;;;;0.00;0.00;;;;;11.90;75.39;98994.78;5098563;27;48795;-61
2021/12/04 06:15:46;;;;;;;;;0.00;0.00;;;;;11.91;75.71;98995.63;5098074;27;60151;-61
2021/12/04 06:18:13;;;;;;;;;1.00;0.00;;;;;11.90;75.39;98997.41;5080422;27;45485;-61
2021/12/04 06:23:22;;;;;;;;;2.00;0.00;;;;;11.90;75.87;99005.31;5098708;27;45517;-61
2021/12/04 06:25:48;;;;;;;;;0.00;0.00;;;;;11.90;75.48;99005.31;5098279;27;48188;-61
2021/12/04 06:28:13;;;;;;;;;0.00;0.00;;;;;11.90;75.57;99001.88;5098488;27;45461;-61
2021/12/04 06:30:41;;;;;;;;;1.00;0.00;;;;;11.91;75.66;98995.63;5098146;27;48539;-61
2021/12/04 06:33:07;;;;;;;;;0.50;0.00;;;;;11.90;75.16;98992.16;5080139;27;45715;-61
2021/12/04 06:35:33;;;;;;;;;0.75;0.00;;;;;11.91;75.47;98991.16;5098469;27;45263;-61
2021/12/04 06:37:59;;;;;;;;;0.00;0.00;;;;;11.92;74.76;98992.78;5098198;27;45226;-61
2021/12/04 06:40:27;;;;;;;;;0.00;0.00;;;;;11.92;75.00;98991.97;5098113;27;45401;-61
2021/12/04 06:42:54;;;;;;;;;0.00;0.00;;;;;11.91;74.84;98982.47;5079540;27;45786;-61
2021/12/04 06:45:20;;;;;;;;;0.00;0.00;;;;;11.90;74.69;98979.00;5080225;27;45282;-61
2021/12/04 06:47:51;;;;;;;;;0.00;0.00;;;;;11.88;74.94;98975.72;5079537;27;52418;-61
2021/12/04 06:50:27;;;;;;;;;0.00;0.00;;;;;11.87;74.82;98974.09;5097819;27;46415;-61
2021/12/04 06:52:52;;;;;;;;;1.00;0.00;;;;;11.84;74.71;98974.47;5078619;27;45548;-60
2021/12/04 06:55:22;;;;;;;;;0.25;0.00;;;;;11.84;74.96;98974.47;5098001;27;45331;-61
2021/12/04 06:57:47;;;;;;;;;1.00;0.00;;;;;11.84;75.04;98980.56;5079248;27;45363;-61
2021/12/04 07:00:13;;;;;;;;;0.00;0.00;;;;;11.83;74.83;98972.81;5097365;27;56351;-61
2021/12/04 07:02:39;;;;;;;;;0.00;0.00;;;;;11.82;74.96;98966.75;5096603;27;45418;-61
2021/12/04 07:05:04;;;;;;;;;0.00;0.00;;;;;11.81;74.47;98970.41;5096441;27;66886;-61
2021/12/04 07:07:30;;;;;;;;;0.00;0.00;;;;;11.79;74.49;98961.88;5097646;27;45592;-61
2021/12/04 07:09:55;;;;;;;;;1.50;0.00;;;;;11.79;74.84;98972.38;5078378;27;63852;-61
2021/12/04 07:12:20;;;;;;;;;0.00;0.00;;;;;11.77;74.85;98966.50;5097640;27;45315;-61
2021/12/04 07:14:46;;;;;;;;;1.00;0.00;;;;;11.77;74.71;98974.38;5061797;27;62740;-61
2021/12/04 07:17:11;;;;;;;;;0.00;0.00;;;;;11.77;74.59;98968.28;5097590;27;45676;-61
2021/12/04 07:19:37;;;;;;;;;1.00;1.00;;;;;11.76;74.65;98964.84;5097320;27;45441;-61
2021/12/04 07:22:03;;;;;;;;;0.50;0.00;;;;;11.76;74.67;98962.22;5097569;27;45301;-61
2021/12/04 07:24:31;;;;;;;;;0.00;0.00;;;;;11.77;74.55;98960.41;5097526;27;45316;-61
2021/12/04 07:26:56;;;;;;;;;0.00;0.00;;;;;11.77;74.99;98958.59;5097582;27;45482;-61
2021/12/04 07:29:21;;;;;;;;;0.00;0.00;;;;;11.77;75.44;98957.75;5097269;27;46274;-61
2021/12/04 07:31:47;;;;;;;;;0.00;0.00;;;;;11.76;75.27;98959.59;5096559;27;70698;-61
2021/12/04 07:34:12;;;;;;;;;1.00;0.75;;;;;11.75;75.09;98959.75;5078378;27;63187;-61
2021/12/04 07:36:38;;;;;;;;;1.00;1.00;;;;;11.75;75.26;98960.59;5078459;27;64237;-61
2021/12/04 07:39:03;;;;;;;;;2.00;1.00;;;;;11.73;75.59;98958.13;5096398;27;64749;-61
2021/12/04 07:41:29;;;;;;;;;0.00;0.00;;;;;11.72;75.22;98953.88;5097029;27;45276;-60
2021/12/04 07:43:54;;;;;;;;;2.00;2.00;;;;;11.71;75.22;98939.06;5097511;27;45311;-61
2021/12/04 07:46:20;;;;;;;;;4.50;4.50;;;;;11.71;75.85;98954.06;5096823;27;53494;-61
2021/12/04 07:48:45;;;;;;;;;5.75;4.75;;;;;11.70;75.44;98947.97;5097092;27;45543;-61
2021/12/04 07:51:11;;;;;;;;;6.75;4.75;;;;;11.70;75.93;98952.44;5095940;27;45414;-61
2021/12/04 07:53:36;;;;;;;;;6.50;4.75;;;;;11.68;75.84;98949.97;5097428;27;45429;-61
2021/12/04 07:56:03;;;;;;;;;3.75;3.00;;;;;11.67;75.78;98947.53;5096884;27;45471;-61
2021/12/04 07:58:29;;;;;;;;;4.00;3.50;;;;;11.66;76.14;98956.41;5097114;27;45360;-61
2021/12/04 08:00:54;;;;;;;;;4.00;4.00;;;;;11.65;76.19;98952.16;5096368;27;64165;-61
2021/12/04 08:03:19;;;;;;;;;4.00;4.00;;;;;11.64;76.42;98953.16;5096506;27;59178;-61
2021/12/04 08:05:46;;;;;;;;;7.50;7.00;;;;;11.63;75.98;98956.78;5096387;27;54949;-61
2021/12/04 08:08:12;;;;;;;;;9.25;7.50;;;;;11.62;76.58;98960.41;5096716;27;47246;-61
2021/12/04 08:10:37;;;;;;;;;7.75;6.50;;;;;11.61;76.29;98964.88;5096707;27;45166;-61
2021/12/04 08:13:03;;;;;;;;;6.00;5.00;;;;;11.60;76.63;98959.78;5096179;27;61007;-61
2021/12/04 08:15:30;;;;;;;;;4.00;4.00;;;;;11.63;76.46;98959.41;5077971;27;45518;-61
2021/12/04 08:17:55;;;;;;;;;5.00;2.75;;;;;11.61;76.80;98962.25;5098642;27;46283;-61
2021/12/04 08:20:20;;;;;;;;;4.00;2.75;;;;;11.64;77.33;98958.41;5099898;27;66334;-62
2021/12/04 08:22:46;;;;;;;;;2.50;2.50;;;;;11.63;76.80;98957.63;5100530;27;45317;-61
2021/12/04 08:25:12;;;;;;;;;2.00;1.50;;;;;11.65;77.24;98955.63;5081295;27;66506;-61
2021/12/04 08:27:38;;;;;;;;;1.25;1.00;;;;;11.66;77.49;98961.69;5100204;27;45430;-61
2021/12/04 08:30:08;;;;;;;;;1.00;1.00;;;;;11.67;77.01;98965.94;5099509;27;63170;-61
2021/12/04 08:32:33;;;;;;;;;1.00;1.00;;;;;11.68;77.04;98963.13;5100462;27;45309;-61
2021/12/04 08:34:59;;;;;;;;;1.00;1.00;;;;;11.69;77.70;98961.31;5099488;27;66163;-61
2021/12/04 08:37:25;;;;;;;;;0.00;0.00;;;;;11.69;77.12;98946.34;5081952;27;46201;-61
2021/12/04 08:39:50;;;;;;;;;0.00;0.00;;;;;11.72;77.54;98953.06;5081214;27;68998;-62
2021/12/04 08:42:16;;;;;;;;;0.75;0.00;;;;;11.71;76.88;98954.88;5099785;27;49856;-61
2021/12/04 08:44:43;;;;;;;;;0.00;0.00;;;;;11.73;76.54;98958.13;5081080;27;63881;-61
2021/12/04 08:47:09;;;;;;;;;0.00;0.00;;;;;11.73;76.10;98960.75;5099670;27;46555;-61
2021/12/04 08:49:34;;;;;;;;;2.00;0.00;;;;;11.72;75.81;98964.38;5099873;27;45450;-61
2021/12/04 08:52:01;;;;;;;;;0.00;0.00;;;;;11.73;75.55;98967.84;5099039;27;66097;-61
2021/12/04 08:54:26;;;;;;;;;0.00;0.00;;;;;11.73;75.68;98973.13;5099946;27;45231;-61
2021/12/04 08:56:51;;;;;;;;;1.50;0.00;;;;;11.75;75.42;98972.91;5099717;27;45784;-61
2021/12/04 08:59:17;;;;;;;;;1.75;1.00;;;;;11.75;76.03;98978.19;5098926;27;70253;-61
2021/12/04 09:01:42;;;;;;;;;0.00;0.00;;;;;11.76;75.64;98980.66;5099021;27;62538;-61
2021/12/04 09:04:10;;;;;;;;;0.75;0.75;;;;;11.77;74.95;98991.97;5099352;27;50408;-61
2021/12/04 09:06:35;;;;;;;;;0.25;0.25;;;;;11.78;75.33;99002.34;5099501;27;46307;-61
2021/12/04 09:09:01;;;;;;;;;0.00;0.00;;;;;11.79;74.73;98992.59;5099685;27;45386;-61
2021/12/04 09:11:29;;;;;;;;;0.00;0.00;;;;;11.78;75.08;98999.69;5099791;27;45477;-61
2021/12/04 09:13:55;;;;;;;;;0.00;0.00;;;;;11.79;74.27;99001.34;5099320;27;45476;-61
2021/12/04 09:16:20;;;;;;;;;0.00;0.00;;;;;11.80;74.09;98996.88;5099266;27;45796;-61
2021/12/04 09:18:46;;;;;;;;;1.00;0.00;;;;;11.79;73.26;99003.13;5098566;27;67705;-61
2021/12/04 09:21:11;;;;;;;;;0.75;0.00;;;;;11.79;73.20;99013.66;5099624;27;45217;-61
2021/12/04 09:23:40;;;;;;;;;0.00;0.00;;;;;11.79;72.76;99013.66;5099614;27;45246;-61
2021/12/04 09:26:09;;;;;;;;;0.00;0.00;;;;;11.76;72.14;99014.03;5099472;27;46982;-61
2021/12/04 09:28:53;;;;;;;;;0.00;0.00;;;;;11.76;71.92;99016.66;5064402;27;45369;-61
2021/12/04 10:11:09;;;;;;;;;2.50;1.00;;;;;12.22;66.82;99077.03;5066744;27;45570;-61
2021/12/04 10:15:20;;;;;;;;;0.50;0.00;;;;;12.12;66.16;99098.38;5098980;27;45345;-61
2021/12/04 10:18:09;;;;;;;;;0.75;0.75;;;;;12.06;65.79;99114.09;5073721;27;45554;-61
2021/12/04 10:33:45;;;;;;;;;0.00;0.00;;;;;11.67;65.07;99137.75;5053373;27;45722;-62
2021/12/04 10:36:11;;;;;;;;;0.50;0.00;;;;;11.60;64.63;99142.13;5058662;27;45340;-61
2021/12/04 10:38:44;;;;;;;;;0.00;0.00;;;;;11.55;64.84;99142.63;5076666;27;45456;-61
2021/12/04 10:41:11;;;;;;;;;1.00;0.00;;;;;11.48;65.04;99143.53;5064034;27;46228;-61
2021/12/04 10:43:37;;;;;;;;;0.00;0.00;;;;;11.45;65.41;99141.25;5035310;27;45648;-61
2021/12/04 10:46:11;;;;;;;;;0.00;0.00;;;;;11.41;65.58;99144.22;5076776;27;45421;-61
2021/12/04 10:48:44;;;;;;;;;0.00;0.00;;;;;11.40;65.45;99147.84;5079501;27;45472;-61
2021/12/04 10:53:51;;;;;;;;;1.00;1.00;;;;;11.36;65.56;99151.03;5076354;27;45314;-61
2021/12/04 10:56:35;;;;;;;;;3.50;3.50;;;;;11.36;65.33;99157.09;5076457;27;45410;-61
2021/12/04 10:59:15;;;;;;;;;1.00;1.00;;;;;11.35;65.18;99154.66;5076436;27;45414;-61
2021/12/04 11:04:39;;;;;;;;;0.25;0.00;;;;;11.33;65.25;99152.16;5080604;27;46005;-61
2021/12/04 11:40:23;;;;;;;;;2.00;1.00;;;;;10.73;63.88;99204.41;5076307;27;45629;-61
2021/12/04 11:42:54;;;;;;;;;3.00;1.00;;;;;10.64;64.81;99202.78;5040197;28;45482;-60
2021/12/04 11:45:25;;;;;;;;;2.00;0.00;;;;;10.59;65.35;99220.88;5046383;28;45658;-61
2021/12/04 11:47:55;;;;;;;;;1.00;1.00;;;;;10.52;65.66;99229.44;5055076;28;45876;-61
2021/12/04 11:50:31;;;;;;;;;1.00;1.00;;;;;10.46;65.85;99224.00;5055041;28;45467;-61
2021/12/04 11:52:59;;;;;;;;;2.00;1.00;;;;;10.41;65.88;99231.56;5071458;28;45429;-61
2021/12/04 11:55:26;;;;;;;;;2.75;1.25;;;;;10.34;65.90;99245.31;5057289;28;45660;-61
2021/12/04 11:57:52;;;;;;;;;2.25;2.00;;;;;10.31;66.91;99255.34;5055283;28;45884;-60
2021/12/04 12:00:25;;;;;;;;;1.25;1.00;;;;;10.25;67.43;99259.47;5055169;28;45446;-60
2021/12/04 12:03:14;;;;;;;;;1.75;1.75;;;;;10.19;67.48;99257.50;5057503;28;45314;-60
2021/12/04 12:05:50;;;;;;;;;2.00;2.00;;;;;10.12;67.75;99264.41;5055892;28;45218;-60
2021/12/04 12:08:42;;;;;;;;;2.00;1.00;;;;;10.03;67.65;99260.97;5054524;28;45412;-60
2021/12/04 12:11:13;;;;;;;;;2.75;1.00;;;;;9.93;67.61;99254.06;5052096;28;45317;-60
2021/12/04 12:13:48;;;;;;;;;2.00;2.00;;;;;9.86;67.55;99266.19;5054905;28;45535;-60
2021/12/04 12:16:18;;;;;;;;;1.00;1.00;;;;;9.78;67.78;99268.81;5046486;28;46223;-60
2021/12/04 12:18:51;;;;;;;;;3.75;1.75;;;;;9.72;67.97;99265.03;5059023;28;45813;-60
2021/12/04 12:21:18;;;;;;;;;3.00;3.00;;;;;9.68;68.41;99250.59;5054808;28;45498;-61
2021/12/04 12:38:47;;;;;;;;;6.25;4.25;;;;;9.64;68.79;99294.69;5053711;28;45497;-60
2021/12/04 12:41:24;;;;;;;;;9.25;7.00;;;;;9.64;69.33;99305.16;5058398;28;45512;-60
2021/12/04 12:44:17;;;;;;;;;8.00;6.00;;;;;9.66;68.98;99312.88;5054840;28;45458;-60
2021/12/04 12:46:54;;;;;;;;;7.50;5.75;;;;;9.66;68.74;99318.13;5057267;28;45231;-61
2021/12/04 12:49:22;;;;;;;;;3.00;2.25;;;;;9.68;68.49;99333.69;5054421;28;50819;-60
2021/12/04 12:52:04;;;;;;;;;5.75;4.00;;;;;9.70;68.67;99344.84;5055539;28;45443;-60
2021/12/04 12:54:50;;;;;;;;;7.00;4.00;;;;;9.72;68.71;99363.88;5054823;28;45426;-61
2021/12/04 12:57:24;;;;;;;;;9.00;5.00;;;;;9.74;68.53;99367.16;5044949;28;45398;-60
2021/12/04 13:14:27;;;;;;;;;4.25;2.00;;;;;9.78;65.92;99369.31;5059359;28;45719;-61
2021/12/04 13:16:56;;;;;;;;;4.50;3.50;;;;;9.78;66.04;99371.94;5057756;28;45378;-60
2021/12/04 13:19:23;;;;;;;;;6.00;4.00;;;;;9.78;65.94;99373.72;5057474;28;45453;-60
2021/12/04 13:21:50;;;;;;;;;14.50;11.50;;;;;9.77;65.91;99372.09;5057066;28;46260;-60
2021/12/04 13:24:16;;;;;;;;;8.25;4.50;;;;;9.76;65.93;99368.66;5059233;28;45338;-60
2021/12/04 13:26:44;;;;;;;;;4.00;3.00;;;;;9.78;65.89;99378.97;5050686;28;45415;-60
2021/12/04 13:29:09;;;;;;;;;6.50;4.75;;;;;9.78;65.84;99373.72;5047784;28;45604;-60
2021/12/04 13:31:38;;;;;;;;;2.50;2.50;;;;;9.78;65.29;99364.06;5039508;28;45965;-60
2021/12/04 13:34:04;;;;;;;;;5.75;3.25;;;;;9.78;64.57;99365.88;5058228;28;45446;-61
2021/12/04 13:36:30;;;;;;;;;6.50;3.25;;;;;9.78;64.46;99364.06;5063223;28;45330;-60
2021/12/04 13:39:04;;;;;;;;;3.00;2.75;;;;;9.78;63.74;99368.50;5063958;28;45204;-60
2021/12/04 13:41:29;;;;;;;;;4.00;3.00;;;;;9.76;63.34;99371.28;5064405;27;46474;-60
2021/12/04 13:43:55;;;;;;;;;5.75;3.75;;;;;9.76;63.16;99378.31;5077133;27;51816;-61
2021/12/04 13:46:21;;;;;;;;;6.00;4.00;;;;;9.76;63.36;99375.69;5079166;27;45469;-60
2021/12/04 13:48:46;;;;;;;;;9.00;5.00;;;;;9.76;63.45;99376.53;5079012;27;45354;-61
2021/12/04 13:51:12;;;;;;;;;6.00;5.00;;;;;9.77;63.20;99374.72;5077018;27;45316;-60
2021/12/04 13:53:39;;;;;;;;;6.75;6.75;;;;;9.77;62.79;99372.94;5059550;27;45847;-61
2021/12/04 13:56:14;;;;;;;;;9.00;4.50;;;;;9.78;62.04;99368.50;5059330;27;45530;-61
2021/12/04 13:59:00;;;;;;;;;5.75;5.00;;;;;9.77;61.45;99370.31;5080436;27;45304;-60
2021/12/04 14:01:41;;;;;;;;;8.25;6.00;;;;;9.77;61.14;99356.34;5081307;27;46680;-60
2021/12/04 14:04:11;;;;;;;;;12.50;5.50;;;;;9.76;60.70;99363.41;5081439;27;45200;-60
2021/12/04 14:06:36;;;;;;;;;7.50;5.00;;;;;9.74;59.80;99380.28;5077354;27;45490;-61
2021/12/04 14:09:06;;;;;;;;;9.00;5.00;;;;;9.70;58.88;99373.69;5076760;27;45506;-60
2021/12/04 14:11:36;;;;;;;;;6.00;4.25;;;;;9.68;58.10;99380.91;5064035;27;48243;-60
2021/12/04 14:14:19;;;;;;;;;6.00;4.00;;;;;9.66;58.03;99378.47;5076938;27;45505;-61
2021/12/04 14:16:45;;;;;;;;;6.00;4.00;;;;;9.64;58.16;99388.28;5079497;27;45384;-60
2021/12/04 14:19:22;;;;;;;;;6.25;4.00;;;;;9.62;58.35;99383.19;5077047;27;45564;-60
2021/12/04 14:22:05;;;;;;;;;6.00;4.00;;;;;9.61;58.34;99378.09;5077321;27;45523;-60
2021/12/04 14:24:43;;;;;;;;;6.50;4.00;;;;;9.60;58.36;99386.97;5075446;27;46166;-60
2021/12/04 14:27:15;;;;;;;;;4.00;3.00;;;;;9.59;58.20;99383.50;5060718;27;45349;-60
2021/12/04 14:29:43;;;;;;;;;7.75;4.00;;;;;9.59;58.33;99395.81;5077154;27;45549;-60
2021/12/04 14:32:09;;;;;;;;;6.00;4.00;;;;;9.58;58.24;99402.03;5069504;27;45362;-60
2021/12/04 14:34:34;;;;;;;;;9.00;5.75;;;;;9.55;58.52;99400.53;5076711;27;45742;-60
2021/12/04 14:37:14;;;;;;;;;6.75;5.00;;;;;9.54;57.84;99398.88;5076447;27;45307;-60
2021/12/04 14:39:44;;;;;;;;;6.00;3.75;;;;;9.49;57.83;99403.81;5063443;27;45534;-62
2021/12/04 14:42:10;;;;;;;;;4.75;4.75;;;;;9.45;57.91;99408.53;5079714;27;46990;-60